sensor_id;sensor_type;location;lat;lon;timestamp;pressure;altitude;pressure_sealevel;temperature;humidity
59829;BME280;45708;51.848;107.620;2023-01-29T00:00:17;94839.69;;;-15.15;71.39
59829;BME280;45708;51.848;107.620;2023-01-29T00:05:18;94828.03;;;-15.00;71.14
59829;BME280;45708;51.848;107.620;2023-01-29T00:10:19;94824.28;;;-14.93;70.52
59829;BME280;45708;51.848;107.620;2023-01-29T00:15:20;94833.47;;;-14.90;70.88
59829;BME280;45708;51.848;107.620;2023-01-29T00:20:21;94845.16;;;-14.88;71.43
59829;BME280;45708;51.848;107.620;2023-01-29T00:25:21;94855.84;;;-14.81;71.17
59829;BME280;45708;51.848;107.620;2023-01-29T00:30:22;94835.94;;;-14.89;70.23
59829;BME280;45708;51.848;107.620;2023-01-29T00:35:23;94841.72;;;-14.87;71.59
59829;BME280;45708;51.848;107.620;2023-01-29T00:40:25;94826.50;;;-15.04;70.74
59829;BME280;45708;51.848;107.620;2023-01-29T00:45:26;94829.78;;;-15.02;71.35
59829;BME280;45708;51.848;107.620;2023-01-29T00:50:27;94847.06;;;-15.10;71.06
59829;BME280;45708;51.848;107.620;2023-01-29T00:55:28;94850.22;;;-15.05;71.77
59829;BME280;45708;51.848;107.620;2023-01-29T01:00:28;94847.31;;;-15.15;70.57
59829;BME280;45708;51.848;107.620;2023-01-29T01:05:29;94844.13;;;-14.84;71.18
59829;BME280;45708;51.848;107.620;2023-01-29T01:10:32;94833.13;;;-13.19;70.35
59829;BME280;45708;51.848;107.620;2023-01-29T01:15:35;94821.03;;;-12.40;68.14
59829;BME280;45708;51.848;107.620;2023-01-29T01:20:36;94815.47;;;-10.14;64.06
59829;BME280;45708;51.848;107.620;2023-01-29T01:25:37;94810.97;;;-8.16;64.00
59829;BME280;45708;51.848;107.620;2023-01-29T01:30:38;94812.56;;;-7.46;62.49
59829;BME280;45708;51.848;107.620;2023-01-29T01:35:39;94810.31;;;-9.01;63.03
59829;BME280;45708;51.848;107.620;2023-01-29T01:40:44;94809.47;;;-8.53;63.25
59829;BME280;45708;51.848;107.620;2023-01-29T01:45:44;94805.03;;;-8.86;61.66
59829;BME280;45708;51.848;107.620;2023-01-29T01:50:49;94807.84;;;-10.66;64.03
59829;BME280;45708;51.848;107.620;2023-01-29T01:56:02;94819.22;;;-11.67;66.95
59829;BME280;45708;51.848;107.620;2023-01-29T02:01:06;94819.81;;;-12.18;67.80
59829;BME280;45708;51.848;107.620;2023-01-29T02:06:08;94833.28;;;-12.46;67.49
59829;BME280;45708;51.848;107.620;2023-01-29T02:11:09;94826.34;;;-12.58;67.13
59829;BME280;45708;51.848;107.620;2023-01-29T02:16:10;94826.34;;;-12.58;67.19
59829;BME280;45708;51.848;107.620;2023-01-29T02:21:28;94813.00;;;-12.48;67.24
59829;BME280;45708;51.848;107.620;2023-01-29T02:27:15;94820.34;;;-12.13;66.71
59829;BME280;45708;51.848;107.620;2023-01-29T02:32:37;94810.00;;;-11.96;66.10
59829;BME280;45708;51.848;107.620;2023-01-29T02:37:51;94801.44;;;-11.81;65.86
59829;BME280;45708;51.848;107.620;2023-01-29T02:48:21;94796.41;;;-11.41;65.77
59829;BME280;45708;51.848;107.620;2023-01-29T02:53:28;94796.44;;;-11.00;65.42
59829;BME280;45708;51.848;107.620;2023-01-29T02:58:42;94798.53;;;-10.80;64.17
59829;BME280;45708;51.848;107.620;2023-01-29T03:03:48;94807.94;;;-10.67;64.65
59829;BME280;45708;51.848;107.620;2023-01-29T03:09:01;94807.47;;;-10.60;64.10
59829;BME280;45708;51.848;107.620;2023-01-29T03:14:09;94809.47;;;-10.78;63.46
59829;BME280;45708;51.848;107.620;2023-01-29T03:19:34;94809.72;;;-10.82;65.71
59829;BME280;45708;51.848;107.620;2023-01-29T03:24:56;94815.97;;;-10.21;64.74
59829;BME280;45708;51.848;107.620;2023-01-29T03:29:58;94821.47;;;-9.51;63.41
59829;BME280;45708;51.848;107.620;2023-01-29T03:35:02;94802.88;;;-8.80;62.79
59829;BME280;45708;51.848;107.620;2023-01-29T03:40:06;94810.47;;;-8.21;62.48
59829;BME280;45708;51.848;107.620;2023-01-29T03:45:19;94812.84;;;-8.07;62.45
59829;BME280;45708;51.848;107.620;2023-01-29T03:55:52;94795.38;;;-8.02;62.02
59829;BME280;45708;51.848;107.620;2023-01-29T04:00:59;94779.78;;;-7.99;61.50
59829;BME280;45708;51.848;107.620;2023-01-29T04:06:20;94801.69;;;-7.94;61.54
59829;BME280;45708;51.848;107.620;2023-01-29T04:11:22;94790.06;;;-7.65;61.61
59829;BME280;45708;51.848;107.620;2023-01-29T04:16:34;94791.34;;;-7.59;60.12
59829;BME280;45708;51.848;107.620;2023-01-29T04:21:36;94784.44;;;-7.25;60.29
59829;BME280;45708;51.848;107.620;2023-01-29T04:27:06;94789.53;;;-7.03;59.84
59829;BME280;45708;51.848;107.620;2023-01-29T04:38:05;94787.38;;;-7.41;59.47
59829;BME280;45708;51.848;107.620;2023-01-29T04:48:19;94804.88;;;-7.35;59.04
59829;BME280;45708;51.848;107.620;2023-01-29T04:58:57;94789.94;;;-7.41;58.33
59829;BME280;45708;51.848;107.620;2023-01-29T05:04:07;94776.78;;;-7.37;58.25
59829;BME280;45708;51.848;107.620;2023-01-29T05:09:12;94768.09;;;-7.24;58.40
59829;BME280;45708;51.848;107.620;2023-01-29T05:14:16;94765.78;;;-7.27;58.60
59829;BME280;45708;51.848;107.620;2023-01-29T05:19:19;94783.78;;;-7.39;57.00
59829;BME280;45708;51.848;107.620;2023-01-29T05:24:23;94786.44;;;-7.62;57.59
59829;BME280;45708;51.848;107.620;2023-01-29T05:29:24;94784.94;;;-7.54;57.56
59829;BME280;45708;51.848;107.620;2023-01-29T05:34:25;94769.75;;;-7.46;57.72
59829;BME280;45708;51.848;107.620;2023-01-29T05:39:25;94761.34;;;-7.25;57.78
59829;BME280;45708;51.848;107.620;2023-01-29T05:44:26;94740.56;;;-7.11;58.08
59829;BME280;45708;51.848;107.620;2023-01-29T05:49:27;94740.06;;;-7.05;57.82
59829;BME280;45708;51.848;107.620;2023-01-29T05:54:28;94730.09;;;-7.19;56.82
59829;BME280;45708;51.848;107.620;2023-01-29T05:59:29;94733.13;;;-7.25;57.76
59829;BME280;45708;51.848;107.620;2023-01-29T06:04:30;94747.81;;;-7.16;57.47
59829;BME280;45708;51.848;107.620;2023-01-29T06:09:31;94743.56;;;-7.06;57.12
59829;BME280;45708;51.848;107.620;2023-01-29T06:14:31;94730.16;;;-6.98;56.38
59829;BME280;45708;51.848;107.620;2023-01-29T06:19:32;94723.13;;;-6.96;56.53
59829;BME280;45708;51.848;107.620;2023-01-29T06:24:33;94717.81;;;-6.84;56.02
59829;BME280;45708;51.848;107.620;2023-01-29T06:29:34;94725.53;;;-6.84;56.80
59829;BME280;45708;51.848;107.620;2023-01-29T06:34:35;94714.38;;;-6.94;56.67
59829;BME280;45708;51.848;107.620;2023-01-29T06:39:37;94727.34;;;-6.95;56.43
59829;BME280;45708;51.848;107.620;2023-01-29T06:44:38;94730.47;;;-6.92;57.51
59829;BME280;45708;51.848;107.620;2023-01-29T06:49:39;94718.44;;;-6.91;57.11
59829;BME280;45708;51.848;107.620;2023-01-29T06:54:39;94717.91;;;-7.06;56.44
59829;BME280;45708;51.848;107.620;2023-01-29T06:59:40;94726.88;;;-7.00;56.97
59829;BME280;45708;51.848;107.620;2023-01-29T07:04:41;94713.28;;;-7.23;57.06
59829;BME280;45708;51.848;107.620;2023-01-29T07:09:42;94703.88;;;-7.34;57.69
59829;BME280;45708;51.848;107.620;2023-01-29T07:14:43;94696.53;;;-7.39;57.91
59829;BME280;45708;51.848;107.620;2023-01-29T07:19:43;94700.06;;;-7.51;57.71
59829;BME280;45708;51.848;107.620;2023-01-29T07:24:44;94717.06;;;-7.61;57.77
59829;BME280;45708;51.848;107.620;2023-01-29T07:29:45;94723.84;;;-7.60;57.54
59829;BME280;45708;51.848;107.620;2023-01-29T07:34:46;94735.28;;;-7.53;57.35
59829;BME280;45708;51.848;107.620;2023-01-29T07:39:47;94726.16;;;-7.46;58.16
59829;BME280;45708;51.848;107.620;2023-01-29T07:44:47;94714.94;;;-7.45;58.19
59829;BME280;45708;51.848;107.620;2023-01-29T07:49:48;94712.38;;;-7.33;57.62
59829;BME280;45708;51.848;107.620;2023-01-29T07:54:50;94725.66;;;-7.28;57.93
59829;BME280;45708;51.848;107.620;2023-01-29T07:59:51;94718.78;;;-7.28;57.99
59829;BME280;45708;51.848;107.620;2023-01-29T08:04:52;94711.66;;;-7.24;57.36
59829;BME280;45708;51.848;107.620;2023-01-29T08:09:53;94712.56;;;-7.14;57.24
59829;BME280;45708;51.848;107.620;2023-01-29T08:14:54;94720.28;;;-7.14;58.06
59829;BME280;45708;51.848;107.620;2023-01-29T08:19:54;94714.69;;;-7.30;57.85
59829;BME280;45708;51.848;107.620;2023-01-29T08:24:55;94718.09;;;-7.41;58.62
59829;BME280;45708;51.848;107.620;2023-01-29T08:29:56;94724.56;;;-7.69;59.01
59829;BME280;45708;51.848;107.620;2023-01-29T08:34:57;94737.16;;;-7.77;59.35
59829;BME280;45708;51.848;107.620;2023-01-29T08:39:58;94742.41;;;-7.79;59.21
59829;BME280;45708;51.848;107.620;2023-01-29T08:44:59;94736.22;;;-7.87;59.60
59829;BME280;45708;51.848;107.620;2023-01-29T08:49:59;94742.75;;;-7.94;59.35
59829;BME280;45708;51.848;107.620;2023-01-29T08:55:00;94742.72;;;-8.06;59.81
59829;BME280;45708;51.848;107.620;2023-01-29T09:00:02;94731.06;;;-8.10;59.75
59829;BME280;45708;51.848;107.620;2023-01-29T09:05:03;94731.06;;;-8.10;59.83
59829;BME280;45708;51.848;107.620;2023-01-29T09:10:04;94726.53;;;-8.17;60.26
59829;BME280;45708;51.848;107.620;2023-01-29T09:15:05;94734.06;;;-8.27;59.94
59829;BME280;45708;51.848;107.620;2023-01-29T09:20:07;94729.69;;;-8.36;59.97
59829;BME280;45708;51.848;107.620;2023-01-29T09:25:08;94702.63;;;-8.51;60.07
59829;BME280;45708;51.848;107.620;2023-01-29T09:30:09;94699.78;;;-8.71;60.06
59829;BME280;45708;51.848;107.620;2023-01-29T09:35:10;94705.78;;;-8.83;60.58
59829;BME280;45708;51.848;107.620;2023-01-29T09:40:37;94711.81;;;-8.95;61.02
59829;BME280;45708;51.848;107.620;2023-01-29T09:45:55;94710.13;;;-9.07;61.17
59829;BME280;45708;51.848;107.620;2023-01-29T09:51:00;94708.00;;;-9.13;60.91
59829;BME280;45708;51.848;107.620;2023-01-29T09:56:21;94710.09;;;-9.18;61.25
59829;BME280;45708;51.848;107.620;2023-01-29T10:01:35;94704.47;;;-9.24;60.69
59829;BME280;45708;51.848;107.620;2023-01-29T10:06:59;94711.31;;;-9.24;60.89
59829;BME280;45708;51.848;107.620;2023-01-29T10:27:57;94687.66;;;-9.39;60.90
59829;BME280;45708;51.848;107.620;2023-01-29T10:33:02;94687.66;;;-9.39;62.22
59829;BME280;45708;51.848;107.620;2023-01-29T10:38:23;94669.47;;;-9.47;61.26
59829;BME280;45708;51.848;107.620;2023-01-29T10:48:54;94667.06;;;-9.61;61.85
59829;BME280;45708;51.848;107.620;2023-01-29T10:59:55;94657.72;;;-9.73;62.23
59829;BME280;45708;51.848;107.620;2023-01-29T11:04:59;94655.88;;;-9.71;61.46
59829;BME280;45708;51.848;107.620;2023-01-29T11:10:09;94658.53;;;-9.73;61.98
59829;BME280;45708;51.848;107.620;2023-01-29T11:15:15;94653.88;;;-9.79;61.84
59829;BME280;45708;51.848;107.620;2023-01-29T11:20:28;94660.31;;;-9.86;62.79
59829;BME280;45708;51.848;107.620;2023-01-29T11:25:30;94653.88;;;-9.92;63.11
59829;BME280;45708;51.848;107.620;2023-01-29T11:30:35;94664.09;;;-9.92;63.50
59829;BME280;45708;51.848;107.620;2023-01-29T11:35:37;94660.84;;;-9.94;63.05
59829;BME280;45708;51.848;107.620;2023-01-29T11:40:39;94656.56;;;-10.06;63.23
59829;BME280;45708;51.848;107.620;2023-01-29T11:45:40;94664.78;;;-10.14;62.82
59829;BME280;45708;51.848;107.620;2023-01-29T11:50:41;94667.84;;;-10.21;63.36
59829;BME280;45708;51.848;107.620;2023-01-29T11:55:45;94674.41;;;-10.30;62.23
59829;BME280;45708;51.848;107.620;2023-01-29T12:00:48;94668.81;;;-10.48;63.19
59829;BME280;45708;51.848;107.620;2023-01-29T12:05:59;94678.28;;;-10.62;63.58
59829;BME280;45708;51.848;107.620;2023-01-29T12:11:27;94669.84;;;-10.76;62.73
59829;BME280;45708;51.848;107.620;2023-01-29T12:21:59;94663.19;;;-10.91;64.27
59829;BME280;45708;51.848;107.620;2023-01-29T12:27:18;94667.47;;;-10.91;64.84
59829;BME280;45708;51.848;107.620;2023-01-29T12:48:38;94666.00;;;-11.21;63.78
59829;BME280;45708;51.848;107.620;2023-01-29T12:53:46;94654.34;;;-11.25;63.99
59829;BME280;45708;51.848;107.620;2023-01-29T12:58:51;94650.47;;;-11.30;64.91
59829;BME280;45708;51.848;107.620;2023-01-29T13:04:08;94646.97;;;-11.42;65.09
59829;BME280;45708;51.848;107.620;2023-01-29T13:09:19;94643.19;;;-11.49;64.03
59829;BME280;45708;51.848;107.620;2023-01-29T13:14:39;94636.66;;;-11.53;65.31
59829;BME280;45708;51.848;107.620;2023-01-29T13:19:43;94643.06;;;-11.48;64.49
59829;BME280;45708;51.848;107.620;2023-01-29T13:24:46;94631.66;;;-11.55;64.44
59829;BME280;45708;51.848;107.620;2023-01-29T13:29:47;94631.41;;;-11.64;64.63
59829;BME280;45708;51.848;107.620;2023-01-29T13:34:49;94621.19;;;-11.77;65.34
59829;BME280;45708;51.848;107.620;2023-01-29T13:39:51;94617.50;;;-11.86;64.85
59829;BME280;45708;51.848;107.620;2023-01-29T13:44:55;94632.06;;;-11.88;65.92
59829;BME280;45708;51.848;107.620;2023-01-29T13:50:07;94621.97;;;-11.89;65.31
59829;BME280;45708;51.848;107.620;2023-01-29T14:10:32;94608.72;;;-11.94;65.17
59829;BME280;45708;51.848;107.620;2023-01-29T14:15:35;94607.00;;;-12.08;65.10
59829;BME280;45708;51.848;107.620;2023-01-29T14:25:48;94590.69;;;-12.18;65.73
59829;BME280;45708;51.848;107.620;2023-01-29T14:30:50;94591.69;;;-12.21;65.64
59829;BME280;45708;51.848;107.620;2023-01-29T14:35:51;94593.59;;;-12.24;65.14
59829;BME280;45708;51.848;107.620;2023-01-29T14:51:41;94588.91;;;-12.45;65.47
59829;BME280;45708;51.848;107.620;2023-01-29T15:01:55;94583.28;;;-12.50;65.70
59829;BME280;45708;51.848;107.620;2023-01-29T15:17:31;94563.13;;;-12.39;65.93
59829;BME280;45708;51.848;107.620;2023-01-29T15:22:41;94582.50;;;-12.23;65.69
59829;BME280;45708;51.848;107.620;2023-01-29T15:27:42;94561.78;;;-12.17;65.04
59829;BME280;45708;51.848;107.620;2023-01-29T15:32:45;94568.50;;;-12.16;65.81
59829;BME280;45708;51.848;107.620;2023-01-29T15:37:58;94569.34;;;-12.03;66.23
59829;BME280;45708;51.848;107.620;2023-01-29T15:42:59;94553.50;;;-11.94;65.87
59829;BME280;45708;51.848;107.620;2023-01-29T15:48:06;94554.38;;;-11.81;65.66
59829;BME280;45708;51.848;107.620;2023-01-29T15:53:29;94565.16;;;-11.77;65.74
59829;BME280;45708;51.848;107.620;2023-01-29T15:58:34;94559.84;;;-11.74;65.70
59829;BME280;45708;51.848;107.620;2023-01-29T16:03:35;94566.28;;;-11.69;65.57
59829;BME280;45708;51.848;107.620;2023-01-29T16:08:37;94558.16;;;-11.61;65.93
59829;BME280;45708;51.848;107.620;2023-01-29T16:13:40;94550.00;;;-11.53;64.95
59829;BME280;45708;51.848;107.620;2023-01-29T16:18:44;94545.41;;;-11.48;65.18
59829;BME280;45708;51.848;107.620;2023-01-29T16:23:49;94549.28;;;-11.43;64.82
59829;BME280;45708;51.848;107.620;2023-01-29T16:28:51;94539.19;;;-11.44;65.13
59829;BME280;45708;51.848;107.620;2023-01-29T16:33:52;94542.28;;;-11.39;65.29
59829;BME280;45708;51.848;107.620;2023-01-29T16:39:01;94524.22;;;-11.36;65.81
59829;BME280;45708;51.848;107.620;2023-01-29T16:54:28;94522.06;;;-11.42;64.39
59829;BME280;45708;51.848;107.620;2023-01-29T16:59:36;94516.47;;;-11.60;65.53
59829;BME280;45708;51.848;107.620;2023-01-29T17:04:40;94508.59;;;-11.70;65.49
59829;BME280;45708;51.848;107.620;2023-01-29T17:09:40;94510.31;;;-11.70;65.81
59829;BME280;45708;51.848;107.620;2023-01-29T17:14:52;94507.16;;;-11.74;66.36
59829;BME280;45708;51.848;107.620;2023-01-29T17:19:53;94497.50;;;-11.69;66.29
59829;BME280;45708;51.848;107.620;2023-01-29T17:24:54;94495.66;;;-11.67;66.18
59829;BME280;45708;51.848;107.620;2023-01-29T17:29:54;94489.25;;;-11.59;66.67
59829;BME280;45708;51.848;107.620;2023-01-29T17:34:55;94491.41;;;-11.53;66.39
59829;BME280;45708;51.848;107.620;2023-01-29T17:39:56;94474.38;;;-11.53;65.82
59829;BME280;45708;51.848;107.620;2023-01-29T17:44:57;94476.81;;;-11.51;66.50
59829;BME280;45708;51.848;107.620;2023-01-29T17:49:58;94470.19;;;-11.41;65.49
59829;BME280;45708;51.848;107.620;2023-01-29T17:54:59;94469.78;;;-11.35;66.39
59829;BME280;45708;51.848;107.620;2023-01-29T18:00:00;94477.44;;;-11.35;65.58
59829;BME280;45708;51.848;107.620;2023-01-29T18:05:00;94455.31;;;-11.47;65.49
59829;BME280;45708;51.848;107.620;2023-01-29T18:10:01;94463.06;;;-11.36;66.37
59829;BME280;45708;51.848;107.620;2023-01-29T18:15:02;94468.38;;;-11.39;65.88
59829;BME280;45708;51.848;107.620;2023-01-29T18:20:16;94470.19;;;-11.41;65.88
59829;BME280;45708;51.848;107.620;2023-01-29T18:25:17;94468.47;;;-11.41;66.17
59829;BME280;45708;51.848;107.620;2023-01-29T18:30:18;94467.34;;;-11.49;65.79
59829;BME280;45708;51.848;107.620;2023-01-29T18:35:19;94467.53;;;-11.65;65.73
59829;BME280;45708;51.848;107.620;2023-01-29T18:40:20;94471.03;;;-11.79;66.36
59829;BME280;45708;51.848;107.620;2023-01-29T18:45:21;94475.06;;;-11.89;65.98
59829;BME280;45708;51.848;107.620;2023-01-29T18:50:23;94482.59;;;-12.00;66.22
59829;BME280;45708;51.848;107.620;2023-01-29T18:55:23;94472.59;;;-12.16;66.89
59829;BME280;45708;51.848;107.620;2023-01-29T19:00:24;94486.94;;;-12.42;66.97
59829;BME280;45708;51.848;107.620;2023-01-29T19:05:25;94470.00;;;-12.55;67.83
59829;BME280;45708;51.848;107.620;2023-01-29T19:10:26;94468.38;;;-12.56;68.27
59829;BME280;45708;51.848;107.620;2023-01-29T19:15:27;94465.34;;;-12.49;68.28
59829;BME280;45708;51.848;107.620;2023-01-29T19:20:28;94458.22;;;-12.44;68.05
59829;BME280;45708;51.848;107.620;2023-01-29T19:25:28;94461.31;;;-12.39;68.08
59829;BME280;45708;51.848;107.620;2023-01-29T19:30:29;94461.78;;;-12.46;68.07
59829;BME280;45708;51.848;107.620;2023-01-29T19:35:30;94449.03;;;-12.59;68.14
59829;BME280;45708;51.848;107.620;2023-01-29T19:40:31;94453.81;;;-12.81;68.90
59829;BME280;45708;51.848;107.620;2023-01-29T19:45:32;94436.91;;;-12.82;68.58
59829;BME280;45708;51.848;107.620;2023-01-29T19:50:33;94418.59;;;-12.87;68.59
59829;BME280;45708;51.848;107.620;2023-01-29T19:55:34;94421.84;;;-12.85;69.37
59829;BME280;45708;51.848;107.620;2023-01-29T20:00:35;94421.28;;;-12.76;68.53
59829;BME280;45708;51.848;107.620;2023-01-29T20:05:36;94416.72;;;-12.71;69.12
59829;BME280;45708;51.848;107.620;2023-01-29T20:10:36;94426.59;;;-12.67;68.68
59829;BME280;45708;51.848;107.620;2023-01-29T20:15:42;94414.38;;;-12.74;69.02
59829;BME280;45708;51.848;107.620;2023-01-29T20:20:45;94405.69;;;-12.84;69.27
59829;BME280;45708;51.848;107.620;2023-01-29T20:25:46;94393.16;;;-12.87;69.22
59829;BME280;45708;51.848;107.620;2023-01-29T20:30:46;94394.78;;;-12.86;69.28
59829;BME280;45708;51.848;107.620;2023-01-29T20:35:58;94400.28;;;-12.93;69.01
59829;BME280;45708;51.848;107.620;2023-01-29T20:41:04;94399.47;;;-12.93;69.71
59829;BME280;45708;51.848;107.620;2023-01-29T20:46:05;94400.78;;;-12.87;69.90
59829;BME280;45708;51.848;107.620;2023-01-29T20:51:12;94398.22;;;-12.73;69.08
59829;BME280;45708;51.848;107.620;2023-01-29T20:56:14;94392.00;;;-12.69;70.09
59829;BME280;45708;51.848;107.620;2023-01-29T21:01:18;94391.25;;;-12.57;69.68
59829;BME280;45708;51.848;107.620;2023-01-29T21:06:19;94388.00;;;-12.46;69.57
59829;BME280;45708;51.848;107.620;2023-01-29T21:11:20;94388.63;;;-12.43;69.15
59829;BME280;45708;51.848;107.620;2023-01-29T21:16:21;94388.00;;;-12.46;68.82
59829;BME280;45708;51.848;107.620;2023-01-29T21:21:21;94389.94;;;-12.50;68.71
59829;BME280;45708;51.848;107.620;2023-01-29T21:26:22;94389.41;;;-12.55;69.49
59829;BME280;45708;51.848;107.620;2023-01-29T21:31:23;94381.28;;;-12.60;69.22
59829;BME280;45708;51.848;107.620;2023-01-29T21:36:24;94379.16;;;-12.53;70.09
59829;BME280;45708;51.848;107.620;2023-01-29T21:41:25;94374.78;;;-12.51;69.83
59829;BME280;45708;51.848;107.620;2023-01-29T21:46:26;94364.59;;;-12.51;69.86
59829;BME280;45708;51.848;107.620;2023-01-29T21:51:27;94367.63;;;-12.59;70.05
59829;BME280;45708;51.848;107.620;2023-01-29T21:56:27;94373.09;;;-12.65;69.65
59829;BME280;45708;51.848;107.620;2023-01-29T22:01:28;94371.25;;;-12.76;69.24
59829;BME280;45708;51.848;107.620;2023-01-29T22:06:29;94368.34;;;-12.84;68.99
59829;BME280;45708;51.848;107.620;2023-01-29T22:11:30;94371.78;;;-12.98;69.64
59829;BME280;45708;51.848;107.620;2023-01-29T22:16:31;94363.81;;;-13.06;69.45
59829;BME280;45708;51.848;107.620;2023-01-29T22:21:31;94370.53;;;-13.05;69.01
59829;BME280;45708;51.848;107.620;2023-01-29T22:26:33;94362.88;;;-13.05;69.45
59829;BME280;45708;51.848;107.620;2023-01-29T22:31:34;94359.63;;;-13.07;68.85
59829;BME280;45708;51.848;107.620;2023-01-29T22:36:34;94358.72;;;-13.06;69.57
59829;BME280;45708;51.848;107.620;2023-01-29T22:41:35;94360.75;;;-13.11;69.56
59829;BME280;45708;51.848;107.620;2023-01-29T22:46:36;94364.97;;;-12.97;69.74
59829;BME280;45708;51.848;107.620;2023-01-29T22:51:37;94360.41;;;-12.92;70.46
59829;BME280;45708;51.848;107.620;2023-01-29T22:56:38;94370.44;;;-12.76;70.09
59829;BME280;45708;51.848;107.620;2023-01-29T23:01:38;94369.84;;;-12.67;70.07
59829;BME280;45708;51.848;107.620;2023-01-29T23:06:39;94361.38;;;-12.80;70.09
59829;BME280;45708;51.848;107.620;2023-01-29T23:11:40;94365.09;;;-12.86;70.09
59829;BME280;45708;51.848;107.620;2023-01-29T23:16:41;94364.69;;;-12.93;69.77
59829;BME280;45708;51.848;107.620;2023-01-29T23:21:42;94375.16;;;-12.84;70.18
59829;BME280;45708;51.848;107.620;2023-01-29T23:26:43;94373.53;;;-12.85;70.08
59829;BME280;45708;51.848;107.620;2023-01-29T23:31:44;94365.53;;;-13.06;70.57
59829;BME280;45708;51.848;107.620;2023-01-29T23:36:44;94375.25;;;-12.99;70.90
59829;BME280;45708;51.848;107.620;2023-01-29T23:41:45;94390.91;;;-12.92;70.25
59829;BME280;45708;51.848;107.620;2023-01-29T23:46:46;94393.56;;;-12.94;71.01
59829;BME280;45708;51.848;107.620;2023-01-29T23:51:48;94386.56;;;-12.90;70.74
59829;BME280;45708;51.848;107.620;2023-01-29T23:56:49;94388.75;;;-12.71;71.08
